sensor_id;sensor_type;location;lat;lon;timestamp;P1;durP1;ratioP1;P2;durP2;ratioP2
46723;SDS011;32463;48.298;11.620;2022-12-29T00:00:23;4.72;;;2.03;;
46723;SDS011;32463;48.298;11.620;2022-12-29T00:02:50;4.82;;;2.20;;
46723;SDS011;32463;48.298;11.620;2022-12-29T00:05:17;4.32;;;2.28;;
46723;SDS011;32463;48.298;11.620;2022-12-29T00:07:44;4.15;;;2.15;;
46723;SDS011;32463;48.298;11.620;2022-12-29T00:10:14;3.92;;;2.35;;
46723;SDS011;32463;48.298;11.620;2022-12-29T00:12:41;3.83;;;2.17;;
46723;SDS011;32463;48.298;11.620;2022-12-29T00:15:28;4.20;;;2.10;;
46723;SDS011;32463;48.298;11.620;2022-12-29T00:18:07;4.88;;;2.58;;
46723;SDS011;32463;48.298;11.620;2022-12-29T00:20:37;4.78;;;2.30;;
46723;SDS011;32463;48.298;11.620;2022-12-29T00:23:21;4.43;;;2.10;;
46723;SDS011;32463;48.298;11.620;2022-12-29T00:26:13;4.07;;;2.50;;
46723;SDS011;32463;48.298;11.620;2022-12-29T00:29:10;4.47;;;2.58;;
46723;SDS011;32463;48.298;11.620;2022-12-29T00:31:57;4.82;;;2.10;;
46723;SDS011;32463;48.298;11.620;2022-12-29T00:34:41;3.95;;;2.40;;
46723;SDS011;32463;48.298;11.620;2022-12-29T00:37:25;3.88;;;2.20;;
46723;SDS011;32463;48.298;11.620;2022-12-29T00:40:06;4.95;;;2.65;;
46723;SDS011;32463;48.298;11.620;2022-12-29T00:42:51;4.57;;;2.53;;
46723;SDS011;32463;48.298;11.620;2022-12-29T00:45:34;5.60;;;2.80;;
46723;SDS011;32463;48.298;11.620;2022-12-29T00:48:02;4.95;;;2.55;;
46723;SDS011;32463;48.298;11.620;2022-12-29T00:50:31;5.57;;;2.50;;
46723;SDS011;32463;48.298;11.620;2022-12-29T00:52:57;6.63;;;3.42;;
46723;SDS011;32463;48.298;11.620;2022-12-29T00:55:23;6.65;;;3.50;;
46723;SDS011;32463;48.298;11.620;2022-12-29T00:57:50;6.50;;;3.47;;
46723;SDS011;32463;48.298;11.620;2022-12-29T01:00:17;5.70;;;3.00;;
46723;SDS011;32463;48.298;11.620;2022-12-29T01:02:44;6.95;;;3.80;;
46723;SDS011;32463;48.298;11.620;2022-12-29T01:05:10;9.38;;;5.40;;
46723;SDS011;32463;48.298;11.620;2022-12-29T01:07:39;9.60;;;5.50;;
46723;SDS011;32463;48.298;11.620;2022-12-29T01:10:07;8.43;;;4.75;;
46723;SDS011;32463;48.298;11.620;2022-12-29T01:12:36;9.25;;;5.07;;
46723;SDS011;32463;48.298;11.620;2022-12-29T01:15:11;11.45;;;5.72;;
46723;SDS011;32463;48.298;11.620;2022-12-29T01:17:38;7.35;;;4.88;;
46723;SDS011;32463;48.298;11.620;2022-12-29T01:20:05;9.32;;;5.20;;
46723;SDS011;32463;48.298;11.620;2022-12-29T01:22:32;8.73;;;5.18;;
46723;SDS011;32463;48.298;11.620;2022-12-29T01:25:01;8.55;;;4.75;;
46723;SDS011;32463;48.298;11.620;2022-12-29T01:27:29;7.82;;;4.70;;
46723;SDS011;32463;48.298;11.620;2022-12-29T01:29:55;7.97;;;4.38;;
46723;SDS011;32463;48.298;11.620;2022-12-29T01:32:22;8.18;;;4.45;;
46723;SDS011;32463;48.298;11.620;2022-12-29T01:34:48;7.90;;;4.10;;
46723;SDS011;32463;48.298;11.620;2022-12-29T01:37:14;9.23;;;4.55;;
46723;SDS011;32463;48.298;11.620;2022-12-29T01:39:41;10.30;;;4.60;;
46723;SDS011;32463;48.298;11.620;2022-12-29T01:42:18;8.20;;;4.40;;
46723;SDS011;32463;48.298;11.620;2022-12-29T01:44:50;7.97;;;4.05;;
46723;SDS011;32463;48.298;11.620;2022-12-29T01:47:21;6.60;;;3.90;;
46723;SDS011;32463;48.298;11.620;2022-12-29T01:49:55;6.38;;;3.78;;
46723;SDS011;32463;48.298;11.620;2022-12-29T01:52:26;8.73;;;4.25;;
46723;SDS011;32463;48.298;11.620;2022-12-29T01:54:54;8.27;;;4.28;;
46723;SDS011;32463;48.298;11.620;2022-12-29T01:57:31;6.95;;;3.83;;
46723;SDS011;32463;48.298;11.620;2022-12-29T02:00:04;8.05;;;3.80;;
46723;SDS011;32463;48.298;11.620;2022-12-29T02:02:34;6.30;;;3.80;;
46723;SDS011;32463;48.298;11.620;2022-12-29T02:05:04;6.47;;;3.58;;
46723;SDS011;32463;48.298;11.620;2022-12-29T02:07:36;5.88;;;3.47;;
46723;SDS011;32463;48.298;11.620;2022-12-29T02:10:04;6.53;;;3.58;;
46723;SDS011;32463;48.298;11.620;2022-12-29T02:12:31;5.30;;;3.30;;
46723;SDS011;32463;48.298;11.620;2022-12-29T02:14:59;6.15;;;3.50;;
46723;SDS011;32463;48.298;11.620;2022-12-29T02:25:37;5.18;;;3.28;;
46723;SDS011;32463;48.298;11.620;2022-12-29T02:33:34;4.65;;;3.03;;
46723;SDS011;32463;48.298;11.620;2022-12-29T02:43:42;4.25;;;2.50;;
46723;SDS011;32463;48.298;11.620;2022-12-29T02:46:36;5.70;;;3.00;;
46723;SDS011;32463;48.298;11.620;2022-12-29T02:51:51;4.90;;;2.50;;
46723;SDS011;32463;48.298;11.620;2022-12-29T02:54:24;2.63;;;1.90;;
46723;SDS011;32463;48.298;11.620;2022-12-29T02:59:42;4.18;;;1.50;;
46723;SDS011;32463;48.298;11.620;2022-12-29T03:15:54;2.15;;;1.10;;
46723;SDS011;32463;48.298;11.620;2022-12-29T03:18:34;2.22;;;1.30;;
46723;SDS011;32463;48.298;11.620;2022-12-29T03:21:14;2.63;;;1.00;;
46723;SDS011;32463;48.298;11.620;2022-12-29T03:23:46;2.17;;;1.13;;
46723;SDS011;32463;48.298;11.620;2022-12-29T03:26:16;2.38;;;1.35;;
46723;SDS011;32463;48.298;11.620;2022-12-29T03:28:46;4.22;;;1.20;;
46723;SDS011;32463;48.298;11.620;2022-12-29T03:33:46;1.58;;;0.90;;
46723;SDS011;32463;48.298;11.620;2022-12-29T03:36:16;1.92;;;1.10;;
46723;SDS011;32463;48.298;11.620;2022-12-29T03:38:53;1.90;;;1.20;;
46723;SDS011;32463;48.298;11.620;2022-12-29T03:41:28;2.65;;;1.02;;
46723;SDS011;32463;48.298;11.620;2022-12-29T03:43:57;1.85;;;1.05;;
46723;SDS011;32463;48.298;11.620;2022-12-29T03:46:24;2.45;;;1.10;;
46723;SDS011;32463;48.298;11.620;2022-12-29T03:48:51;2.55;;;0.80;;
46723;SDS011;32463;48.298;11.620;2022-12-29T03:51:17;3.72;;;1.73;;
46723;SDS011;32463;48.298;11.620;2022-12-29T03:53:44;2.15;;;1.10;;
46723;SDS011;32463;48.298;11.620;2022-12-29T03:56:10;1.73;;;1.00;;
46723;SDS011;32463;48.298;11.620;2022-12-29T03:58:37;1.05;;;0.75;;
46723;SDS011;32463;48.298;11.620;2022-12-29T04:01:03;1.60;;;0.95;;
46723;SDS011;32463;48.298;11.620;2022-12-29T04:03:31;1.30;;;0.80;;
46723;SDS011;32463;48.298;11.620;2022-12-29T04:05:58;1.65;;;0.85;;
46723;SDS011;32463;48.298;11.620;2022-12-29T04:08:24;2.80;;;0.88;;
46723;SDS011;32463;48.298;11.620;2022-12-29T04:10:51;1.63;;;0.88;;
46723;SDS011;32463;48.298;11.620;2022-12-29T04:13:18;2.10;;;0.93;;
46723;SDS011;32463;48.298;11.620;2022-12-29T04:15:44;2.03;;;1.27;;
46723;SDS011;32463;48.298;11.620;2022-12-29T04:18:11;2.38;;;1.20;;
46723;SDS011;32463;48.298;11.620;2022-12-29T04:20:39;2.50;;;1.10;;
46723;SDS011;32463;48.298;11.620;2022-12-29T04:23:23;1.88;;;1.00;;
46723;SDS011;32463;48.298;11.620;2022-12-29T04:25:50;1.63;;;0.95;;
46723;SDS011;32463;48.298;11.620;2022-12-29T04:28:16;4.18;;;1.10;;
46723;SDS011;32463;48.298;11.620;2022-12-29T04:30:43;1.98;;;1.00;;
46723;SDS011;32463;48.298;11.620;2022-12-29T04:33:10;1.98;;;1.00;;
46723;SDS011;32463;48.298;11.620;2022-12-29T04:35:37;1.80;;;1.10;;
46723;SDS011;32463;48.298;11.620;2022-12-29T04:38:03;1.48;;;1.00;;
46723;SDS011;32463;48.298;11.620;2022-12-29T04:40:30;1.25;;;0.88;;
46723;SDS011;32463;48.298;11.620;2022-12-29T04:42:57;1.17;;;0.80;;
46723;SDS011;32463;48.298;11.620;2022-12-29T04:45:23;1.63;;;0.93;;
46723;SDS011;32463;48.298;11.620;2022-12-29T04:47:50;2.45;;;1.10;;
46723;SDS011;32463;48.298;11.620;2022-12-29T04:50:17;1.55;;;0.90;;
46723;SDS011;32463;48.298;11.620;2022-12-29T04:52:44;4.78;;;0.88;;
46723;SDS011;32463;48.298;11.620;2022-12-29T04:55:11;1.67;;;0.93;;
46723;SDS011;32463;48.298;11.620;2022-12-29T04:57:37;2.92;;;0.82;;
46723;SDS011;32463;48.298;11.620;2022-12-29T05:00:04;2.20;;;0.80;;
46723;SDS011;32463;48.298;11.620;2022-12-29T05:02:31;4.05;;;0.90;;
46723;SDS011;32463;48.298;11.620;2022-12-29T05:04:58;2.97;;;1.30;;
46723;SDS011;32463;48.298;11.620;2022-12-29T05:07:24;1.15;;;0.80;;
46723;SDS011;32463;48.298;11.620;2022-12-29T05:09:51;1.77;;;0.90;;
46723;SDS011;32463;48.298;11.620;2022-12-29T05:12:18;0.98;;;0.60;;
46723;SDS011;32463;48.298;11.620;2022-12-29T05:14:44;1.80;;;0.90;;
46723;SDS011;32463;48.298;11.620;2022-12-29T05:17:11;1.05;;;0.70;;
46723;SDS011;32463;48.298;11.620;2022-12-29T05:19:37;2.53;;;0.90;;
46723;SDS011;32463;48.298;11.620;2022-12-29T05:22:04;1.20;;;0.80;;
46723;SDS011;32463;48.298;11.620;2022-12-29T05:24:31;1.30;;;0.90;;
46723;SDS011;32463;48.298;11.620;2022-12-29T05:26:57;1.83;;;0.90;;
46723;SDS011;32463;48.298;11.620;2022-12-29T05:29:24;1.98;;;1.00;;
46723;SDS011;32463;48.298;11.620;2022-12-29T05:31:51;1.65;;;0.90;;
46723;SDS011;32463;48.298;11.620;2022-12-29T05:34:17;2.10;;;1.00;;
46723;SDS011;32463;48.298;11.620;2022-12-29T05:36:44;1.25;;;0.77;;
46723;SDS011;32463;48.298;11.620;2022-12-29T05:39:11;1.52;;;0.90;;
46723;SDS011;32463;48.298;11.620;2022-12-29T05:41:37;0.88;;;0.70;;
46723;SDS011;32463;48.298;11.620;2022-12-29T05:44:06;2.38;;;0.75;;
46723;SDS011;32463;48.298;11.620;2022-12-29T05:46:32;0.90;;;0.73;;
46723;SDS011;32463;48.298;11.620;2022-12-29T05:48:59;1.40;;;0.70;;
46723;SDS011;32463;48.298;11.620;2022-12-29T05:51:27;1.92;;;0.90;;
46723;SDS011;32463;48.298;11.620;2022-12-29T05:53:54;4.45;;;0.85;;
46723;SDS011;32463;48.298;11.620;2022-12-29T05:56:21;1.30;;;0.80;;
46723;SDS011;32463;48.298;11.620;2022-12-29T05:58:47;1.60;;;0.95;;
46723;SDS011;32463;48.298;11.620;2022-12-29T06:01:14;1.10;;;0.70;;
46723;SDS011;32463;48.298;11.620;2022-12-29T06:03:41;1.77;;;0.88;;
46723;SDS011;32463;48.298;11.620;2022-12-29T06:06:07;3.20;;;0.77;;
46723;SDS011;32463;48.298;11.620;2022-12-29T06:08:34;1.27;;;0.73;;
46723;SDS011;32463;48.298;11.620;2022-12-29T06:11:00;2.40;;;1.20;;
46723;SDS011;32463;48.298;11.620;2022-12-29T06:13:27;2.78;;;1.00;;
46723;SDS011;32463;48.298;11.620;2022-12-29T06:15:53;1.55;;;0.80;;
46723;SDS011;32463;48.298;11.620;2022-12-29T06:18:20;2.00;;;0.77;;
46723;SDS011;32463;48.298;11.620;2022-12-29T06:20:47;3.17;;;0.90;;
46723;SDS011;32463;48.298;11.620;2022-12-29T06:23:13;2.13;;;0.85;;
46723;SDS011;32463;48.298;11.620;2022-12-29T06:25:41;1.58;;;1.00;;
46723;SDS011;32463;48.298;11.620;2022-12-29T06:28:08;2.58;;;0.90;;
46723;SDS011;32463;48.298;11.620;2022-12-29T06:30:35;2.40;;;0.80;;
46723;SDS011;32463;48.298;11.620;2022-12-29T06:33:03;2.92;;;0.95;;
46723;SDS011;32463;48.298;11.620;2022-12-29T06:35:30;1.98;;;0.90;;
46723;SDS011;32463;48.298;11.620;2022-12-29T06:37:57;1.67;;;0.70;;
46723;SDS011;32463;48.298;11.620;2022-12-29T06:40:23;3.47;;;1.30;;
46723;SDS011;32463;48.298;11.620;2022-12-29T06:42:50;4.60;;;2.25;;
46723;SDS011;32463;48.298;11.620;2022-12-29T06:45:16;1.45;;;0.80;;
46723;SDS011;32463;48.298;11.620;2022-12-29T06:47:43;2.72;;;0.77;;
46723;SDS011;32463;48.298;11.620;2022-12-29T06:50:10;2.25;;;0.80;;
46723;SDS011;32463;48.298;11.620;2022-12-29T06:52:37;1.65;;;0.80;;
46723;SDS011;32463;48.298;11.620;2022-12-29T06:55:04;2.28;;;1.00;;
46723;SDS011;32463;48.298;11.620;2022-12-29T06:57:31;2.90;;;0.90;;
46723;SDS011;32463;48.298;11.620;2022-12-29T06:59:57;1.60;;;0.70;;
46723;SDS011;32463;48.298;11.620;2022-12-29T07:02:24;2.28;;;0.90;;
46723;SDS011;32463;48.298;11.620;2022-12-29T07:04:52;1.25;;;0.88;;
46723;SDS011;32463;48.298;11.620;2022-12-29T07:07:22;1.67;;;0.90;;
46723;SDS011;32463;48.298;11.620;2022-12-29T07:09:49;3.00;;;0.93;;
46723;SDS011;32463;48.298;11.620;2022-12-29T07:12:18;2.63;;;1.23;;
46723;SDS011;32463;48.298;11.620;2022-12-29T07:14:48;4.45;;;1.20;;
46723;SDS011;32463;48.298;11.620;2022-12-29T07:17:17;2.03;;;1.00;;
46723;SDS011;32463;48.298;11.620;2022-12-29T07:19:44;3.63;;;1.48;;
46723;SDS011;32463;48.298;11.620;2022-12-29T07:22:10;4.50;;;1.50;;
46723;SDS011;32463;48.298;11.620;2022-12-29T07:24:46;2.47;;;1.30;;
46723;SDS011;32463;48.298;11.620;2022-12-29T07:27:13;1.95;;;1.10;;
46723;SDS011;32463;48.298;11.620;2022-12-29T07:29:43;3.33;;;1.30;;
46723;SDS011;32463;48.298;11.620;2022-12-29T07:32:10;2.85;;;1.33;;
46723;SDS011;32463;48.298;11.620;2022-12-29T07:34:36;2.38;;;1.60;;
46723;SDS011;32463;48.298;11.620;2022-12-29T07:37:04;3.80;;;1.40;;
46723;SDS011;32463;48.298;11.620;2022-12-29T07:39:31;3.08;;;1.40;;
46723;SDS011;32463;48.298;11.620;2022-12-29T07:41:58;2.00;;;1.02;;
46723;SDS011;32463;48.298;11.620;2022-12-29T07:44:25;2.33;;;0.95;;
46723;SDS011;32463;48.298;11.620;2022-12-29T07:46:51;4.38;;;1.00;;
46723;SDS011;32463;48.298;11.620;2022-12-29T07:49:18;6.05;;;2.35;;
46723;SDS011;32463;48.298;11.620;2022-12-29T07:51:44;2.03;;;1.10;;
46723;SDS011;32463;48.298;11.620;2022-12-29T07:54:11;2.00;;;0.90;;
46723;SDS011;32463;48.298;11.620;2022-12-29T07:56:38;3.13;;;1.00;;
46723;SDS011;32463;48.298;11.620;2022-12-29T07:59:04;1.38;;;0.80;;
46723;SDS011;32463;48.298;11.620;2022-12-29T08:01:31;3.78;;;0.98;;
46723;SDS011;32463;48.298;11.620;2022-12-29T08:03:57;2.20;;;1.00;;
46723;SDS011;32463;48.298;11.620;2022-12-29T08:06:24;1.85;;;0.90;;
46723;SDS011;32463;48.298;11.620;2022-12-29T08:08:50;2.47;;;1.02;;
46723;SDS011;32463;48.298;11.620;2022-12-29T08:11:17;1.85;;;0.95;;
46723;SDS011;32463;48.298;11.620;2022-12-29T08:13:43;2.22;;;0.98;;
46723;SDS011;32463;48.298;11.620;2022-12-29T08:16:10;2.58;;;1.00;;
46723;SDS011;32463;48.298;11.620;2022-12-29T08:18:36;2.33;;;1.10;;
46723;SDS011;32463;48.298;11.620;2022-12-29T08:21:03;2.47;;;1.10;;
46723;SDS011;32463;48.298;11.620;2022-12-29T08:23:30;1.80;;;1.05;;
46723;SDS011;32463;48.298;11.620;2022-12-29T08:26:02;3.03;;;0.98;;
46723;SDS011;32463;48.298;11.620;2022-12-29T08:28:30;3.42;;;1.05;;
46723;SDS011;32463;48.298;11.620;2022-12-29T08:30:58;1.63;;;0.98;;
46723;SDS011;32463;48.298;11.620;2022-12-29T08:33:26;1.75;;;0.90;;
46723;SDS011;32463;48.298;11.620;2022-12-29T08:35:58;6.55;;;3.10;;
46723;SDS011;32463;48.298;11.620;2022-12-29T08:38:27;3.53;;;1.10;;
46723;SDS011;32463;48.298;11.620;2022-12-29T08:40:55;2.83;;;1.00;;
46723;SDS011;32463;48.298;11.620;2022-12-29T08:43:22;2.97;;;1.00;;
46723;SDS011;32463;48.298;11.620;2022-12-29T08:45:50;5.68;;;1.00;;
46723;SDS011;32463;48.298;11.620;2022-12-29T08:48:17;2.97;;;0.98;;
46723;SDS011;32463;48.298;11.620;2022-12-29T08:50:45;2.55;;;0.90;;
46723;SDS011;32463;48.298;11.620;2022-12-29T08:53:12;2.88;;;0.95;;
46723;SDS011;32463;48.298;11.620;2022-12-29T08:55:38;2.35;;;1.05;;
46723;SDS011;32463;48.298;11.620;2022-12-29T08:58:05;4.93;;;1.00;;
46723;SDS011;32463;48.298;11.620;2022-12-29T09:00:31;1.45;;;0.90;;
46723;SDS011;32463;48.298;11.620;2022-12-29T09:02:58;1.55;;;1.02;;
46723;SDS011;32463;48.298;11.620;2022-12-29T09:05:24;3.17;;;1.08;;
46723;SDS011;32463;48.298;11.620;2022-12-29T09:07:51;2.22;;;1.00;;
46723;SDS011;32463;48.298;11.620;2022-12-29T09:10:17;2.72;;;0.90;;
46723;SDS011;32463;48.298;11.620;2022-12-29T09:12:44;2.03;;;0.80;;
46723;SDS011;32463;48.298;11.620;2022-12-29T09:15:10;2.20;;;1.02;;
46723;SDS011;32463;48.298;11.620;2022-12-29T09:17:37;2.53;;;1.10;;
46723;SDS011;32463;48.298;11.620;2022-12-29T09:20:07;6.32;;;1.30;;
46723;SDS011;32463;48.298;11.620;2022-12-29T09:22:35;2.20;;;1.00;;
46723;SDS011;32463;48.298;11.620;2022-12-29T09:25:02;3.42;;;1.20;;
46723;SDS011;32463;48.298;11.620;2022-12-29T09:27:29;1.90;;;1.05;;
46723;SDS011;32463;48.298;11.620;2022-12-29T09:29:56;4.18;;;1.00;;
46723;SDS011;32463;48.298;11.620;2022-12-29T09:32:22;3.05;;;1.20;;
46723;SDS011;32463;48.298;11.620;2022-12-29T09:34:49;3.08;;;1.35;;
46723;SDS011;32463;48.298;11.620;2022-12-29T09:37:15;2.45;;;1.30;;
46723;SDS011;32463;48.298;11.620;2022-12-29T09:39:41;2.00;;;1.25;;
46723;SDS011;32463;48.298;11.620;2022-12-29T09:42:11;5.20;;;1.40;;
46723;SDS011;32463;48.298;11.620;2022-12-29T09:47:43;2.50;;;0.88;;
46723;SDS011;32463;48.298;11.620;2022-12-29T09:50:24;4.95;;;1.20;;
46723;SDS011;32463;48.298;11.620;2022-12-29T09:55:48;3.42;;;1.20;;
46723;SDS011;32463;48.298;11.620;2022-12-29T10:01:00;2.83;;;1.08;;
46723;SDS011;32463;48.298;11.620;2022-12-29T10:03:40;1.90;;;1.10;;
46723;SDS011;32463;48.298;11.620;2022-12-29T10:06:26;3.45;;;1.05;;
46723;SDS011;32463;48.298;11.620;2022-12-29T10:12:08;2.33;;;1.20;;
46723;SDS011;32463;48.298;11.620;2022-12-29T10:20:33;6.85;;;1.63;;
46723;SDS011;32463;48.298;11.620;2022-12-29T10:23:28;5.38;;;1.10;;
46723;SDS011;32463;48.298;11.620;2022-12-29T10:25:59;2.63;;;1.10;;
46723;SDS011;32463;48.298;11.620;2022-12-29T10:31:09;2.88;;;1.48;;
46723;SDS011;32463;48.298;11.620;2022-12-29T10:33:42;3.80;;;1.40;;
46723;SDS011;32463;48.298;11.620;2022-12-29T10:36:16;2.97;;;1.33;;
46723;SDS011;32463;48.298;11.620;2022-12-29T10:38:48;2.88;;;1.20;;
46723;SDS011;32463;48.298;11.620;2022-12-29T10:41:28;3.15;;;1.15;;
46723;SDS011;32463;48.298;11.620;2022-12-29T10:44:02;3.20;;;1.30;;
46723;SDS011;32463;48.298;11.620;2022-12-29T10:46:30;3.83;;;1.27;;
46723;SDS011;32463;48.298;11.620;2022-12-29T10:49:00;2.30;;;1.17;;
46723;SDS011;32463;48.298;11.620;2022-12-29T10:51:30;9.57;;;3.83;;
46723;SDS011;32463;48.298;11.620;2022-12-29T10:54:03;3.90;;;1.50;;
46723;SDS011;32463;48.298;11.620;2022-12-29T10:56:40;2.97;;;1.55;;
46723;SDS011;32463;48.298;11.620;2022-12-29T10:59:16;7.10;;;1.88;;
46723;SDS011;32463;48.298;11.620;2022-12-29T11:07:16;2.15;;;1.38;;
46723;SDS011;32463;48.298;11.620;2022-12-29T11:09:45;2.50;;;1.25;;
46723;SDS011;32463;48.298;11.620;2022-12-29T11:12:25;1.67;;;1.10;;
46723;SDS011;32463;48.298;11.620;2022-12-29T11:15:11;3.72;;;1.60;;
46723;SDS011;32463;48.298;11.620;2022-12-29T11:17:47;2.90;;;1.20;;
46723;SDS011;32463;48.298;11.620;2022-12-29T11:23:01;2.05;;;0.90;;
46723;SDS011;32463;48.298;11.620;2022-12-29T11:25:28;2.35;;;1.00;;
46723;SDS011;32463;48.298;11.620;2022-12-29T11:28:16;1.92;;;0.80;;
46723;SDS011;32463;48.298;11.620;2022-12-29T11:30:42;4.80;;;1.02;;
46723;SDS011;32463;48.298;11.620;2022-12-29T11:33:09;3.33;;;1.00;;
46723;SDS011;32463;48.298;11.620;2022-12-29T11:35:40;1.67;;;1.08;;
46723;SDS011;32463;48.298;11.620;2022-12-29T11:38:21;3.13;;;1.00;;
46723;SDS011;32463;48.298;11.620;2022-12-29T11:40:52;1.73;;;0.93;;
46723;SDS011;32463;48.298;11.620;2022-12-29T11:43:34;2.47;;;0.80;;
46723;SDS011;32463;48.298;11.620;2022-12-29T11:46:05;1.67;;;1.00;;
46723;SDS011;32463;48.298;11.620;2022-12-29T11:48:33;2.42;;;0.93;;
46723;SDS011;32463;48.298;11.620;2022-12-29T11:51:05;2.05;;;1.00;;
46723;SDS011;32463;48.298;11.620;2022-12-29T11:53:46;4.00;;;1.20;;
46723;SDS011;32463;48.298;11.620;2022-12-29T11:56:16;3.47;;;1.05;;
46723;SDS011;32463;48.298;11.620;2022-12-29T11:59:20;3.00;;;1.10;;
46723;SDS011;32463;48.298;11.620;2022-12-29T12:02:15;3.92;;;1.20;;
46723;SDS011;32463;48.298;11.620;2022-12-29T12:04:47;3.03;;;1.00;;
46723;SDS011;32463;48.298;11.620;2022-12-29T12:07:18;2.40;;;1.20;;
46723;SDS011;32463;48.298;11.620;2022-12-29T12:09:57;9.88;;;4.43;;
46723;SDS011;32463;48.298;11.620;2022-12-29T12:15:22;2.35;;;1.15;;
46723;SDS011;32463;48.298;11.620;2022-12-29T12:20:32;4.40;;;1.10;;
46723;SDS011;32463;48.298;11.620;2022-12-29T12:23:50;1.92;;;1.00;;
46723;SDS011;32463;48.298;11.620;2022-12-29T12:26:13;2.03;;;1.00;;
46723;SDS011;32463;48.298;11.620;2022-12-29T12:34:00;2.25;;;0.95;;
46723;SDS011;32463;48.298;11.620;2022-12-29T12:39:26;2.20;;;0.90;;
46723;SDS011;32463;48.298;11.620;2022-12-29T12:51:36;2.58;;;0.80;;
46723;SDS011;32463;48.298;11.620;2022-12-29T12:57:13;2.08;;;1.02;;
46723;SDS011;32463;48.298;11.620;2022-12-29T13:00:12;1.42;;;0.88;;
46723;SDS011;32463;48.298;11.620;2022-12-29T13:16:34;1.75;;;0.98;;
46723;SDS011;32463;48.298;11.620;2022-12-29T13:24:44;3.88;;;1.10;;
46723;SDS011;32463;48.298;11.620;2022-12-29T13:29:51;2.50;;;1.60;;
46723;SDS011;32463;48.298;11.620;2022-12-29T13:38:09;2.30;;;1.20;;
46723;SDS011;32463;48.298;11.620;2022-12-29T13:40:43;5.13;;;1.30;;
46723;SDS011;32463;48.298;11.620;2022-12-29T13:43:13;4.47;;;1.80;;
46723;SDS011;32463;48.298;11.620;2022-12-29T13:45:42;3.67;;;1.50;;
46723;SDS011;32463;48.298;11.620;2022-12-29T13:50:48;1.70;;;0.90;;
46723;SDS011;32463;48.298;11.620;2022-12-29T13:53:27;4.10;;;1.80;;
46723;SDS011;32463;48.298;11.620;2022-12-29T13:56:32;2.30;;;1.48;;
46723;SDS011;32463;48.298;11.620;2022-12-29T14:02:04;4.05;;;1.80;;
46723;SDS011;32463;48.298;11.620;2022-12-29T14:07:29;5.93;;;3.45;;
46723;SDS011;32463;48.298;11.620;2022-12-29T14:10:03;5.93;;;2.00;;
46723;SDS011;32463;48.298;11.620;2022-12-29T14:12:40;3.88;;;2.42;;
46723;SDS011;32463;48.298;11.620;2022-12-29T14:17:39;4.68;;;2.20;;
46723;SDS011;32463;48.298;11.620;2022-12-29T14:20:16;6.30;;;3.40;;
46723;SDS011;32463;48.298;11.620;2022-12-29T14:23:15;6.03;;;3.67;;
46723;SDS011;32463;48.298;11.620;2022-12-29T14:25:58;7.75;;;2.70;;
46723;SDS011;32463;48.298;11.620;2022-12-29T14:36:41;4.13;;;2.22;;
46723;SDS011;32463;48.298;11.620;2022-12-29T14:39:37;9.25;;;5.50;;
46723;SDS011;32463;48.298;11.620;2022-12-29T14:44:48;5.68;;;2.47;;
46723;SDS011;32463;48.298;11.620;2022-12-29T14:47:20;6.50;;;2.47;;
46723;SDS011;32463;48.298;11.620;2022-12-29T14:49:53;4.88;;;1.90;;
46723;SDS011;32463;48.298;11.620;2022-12-29T14:52:22;5.10;;;2.40;;
46723;SDS011;32463;48.298;11.620;2022-12-29T14:54:53;4.35;;;1.90;;
46723;SDS011;32463;48.298;11.620;2022-12-29T14:57:50;4.38;;;1.98;;
46723;SDS011;32463;48.298;11.620;2022-12-29T15:00:22;3.67;;;2.10;;
46723;SDS011;32463;48.298;11.620;2022-12-29T15:03:00;8.45;;;2.45;;
46723;SDS011;32463;48.298;11.620;2022-12-29T15:05:35;3.47;;;2.13;;
46723;SDS011;32463;48.298;11.620;2022-12-29T15:08:07;2.60;;;1.45;;
46723;SDS011;32463;48.298;11.620;2022-12-29T15:10:41;3.78;;;1.38;;
46723;SDS011;32463;48.298;11.620;2022-12-29T15:13:16;2.88;;;1.23;;
46723;SDS011;32463;48.298;11.620;2022-12-29T15:15:48;2.72;;;1.00;;
46723;SDS011;32463;48.298;11.620;2022-12-29T15:18:25;2.25;;;1.13;;
46723;SDS011;32463;48.298;11.620;2022-12-29T15:21:02;6.00;;;1.52;;
46723;SDS011;32463;48.298;11.620;2022-12-29T15:23:37;3.95;;;1.40;;
46723;SDS011;32463;48.298;11.620;2022-12-29T15:26:07;2.78;;;1.30;;
46723;SDS011;32463;48.298;11.620;2022-12-29T15:28:39;2.92;;;1.23;;
46723;SDS011;32463;48.298;11.620;2022-12-29T15:31:12;3.08;;;1.00;;
46723;SDS011;32463;48.298;11.620;2022-12-29T15:33:43;3.92;;;1.00;;
46723;SDS011;32463;48.298;11.620;2022-12-29T15:36:14;1.30;;;0.90;;
46723;SDS011;32463;48.298;11.620;2022-12-29T15:38:55;2.47;;;1.00;;
46723;SDS011;32463;48.298;11.620;2022-12-29T15:41:29;3.65;;;1.30;;
46723;SDS011;32463;48.298;11.620;2022-12-29T15:44:34;4.68;;;1.40;;
46723;SDS011;32463;48.298;11.620;2022-12-29T15:47:05;3.33;;;1.45;;
46723;SDS011;32463;48.298;11.620;2022-12-29T15:49:38;7.18;;;2.28;;
46723;SDS011;32463;48.298;11.620;2022-12-29T15:52:08;6.70;;;2.50;;
46723;SDS011;32463;48.298;11.620;2022-12-29T15:54:36;9.13;;;1.95;;
46723;SDS011;32463;48.298;11.620;2022-12-29T15:57:09;5.50;;;1.75;;
46723;SDS011;32463;48.298;11.620;2022-12-29T15:59:48;3.00;;;1.50;;
46723;SDS011;32463;48.298;11.620;2022-12-29T16:02:19;5.07;;;1.60;;
46723;SDS011;32463;48.298;11.620;2022-12-29T16:04:48;3.67;;;1.98;;
46723;SDS011;32463;48.298;11.620;2022-12-29T16:07:23;5.65;;;1.92;;
46723;SDS011;32463;48.298;11.620;2022-12-29T16:09:59;6.80;;;2.40;;
46723;SDS011;32463;48.298;11.620;2022-12-29T16:12:31;4.30;;;2.20;;
46723;SDS011;32463;48.298;11.620;2022-12-29T16:15:04;11.68;;;2.38;;
46723;SDS011;32463;48.298;11.620;2022-12-29T16:17:34;3.10;;;1.77;;
46723;SDS011;32463;48.298;11.620;2022-12-29T16:20:15;6.57;;;2.42;;
46723;SDS011;32463;48.298;11.620;2022-12-29T16:22:54;6.10;;;1.90;;
46723;SDS011;32463;48.298;11.620;2022-12-29T16:25:30;3.92;;;1.80;;
46723;SDS011;32463;48.298;11.620;2022-12-29T16:28:02;4.00;;;1.70;;
46723;SDS011;32463;48.298;11.620;2022-12-29T16:30:41;2.75;;;1.50;;
46723;SDS011;32463;48.298;11.620;2022-12-29T16:36:27;4.82;;;1.80;;
46723;SDS011;32463;48.298;11.620;2022-12-29T16:39:15;8.48;;;2.92;;
46723;SDS011;32463;48.298;11.620;2022-12-29T16:41:42;8.60;;;3.20;;
46723;SDS011;32463;48.298;11.620;2022-12-29T16:44:28;8.43;;;2.42;;
46723;SDS011;32463;48.298;11.620;2022-12-29T16:47:04;4.47;;;2.60;;
46723;SDS011;32463;48.298;11.620;2022-12-29T16:49:47;6.47;;;3.00;;
46723;SDS011;32463;48.298;11.620;2022-12-29T16:52:24;14.10;;;6.40;;
46723;SDS011;32463;48.298;11.620;2022-12-29T16:54:57;4.40;;;2.30;;
46723;SDS011;32463;48.298;11.620;2022-12-29T16:57:32;8.02;;;2.40;;
46723;SDS011;32463;48.298;11.620;2022-12-29T17:00:06;6.22;;;2.60;;
46723;SDS011;32463;48.298;11.620;2022-12-29T17:02:36;5.45;;;2.45;;
46723;SDS011;32463;48.298;11.620;2022-12-29T17:05:12;5.88;;;2.40;;
46723;SDS011;32463;48.298;11.620;2022-12-29T17:07:39;4.25;;;2.50;;
46723;SDS011;32463;48.298;11.620;2022-12-29T17:10:06;3.53;;;1.88;;
46723;SDS011;32463;48.298;11.620;2022-12-29T17:12:33;5.60;;;2.00;;
46723;SDS011;32463;48.298;11.620;2022-12-29T17:15:03;4.75;;;1.90;;
46723;SDS011;32463;48.298;11.620;2022-12-29T17:17:37;4.72;;;1.88;;
46723;SDS011;32463;48.298;11.620;2022-12-29T17:23:05;3.83;;;1.80;;
46723;SDS011;32463;48.298;11.620;2022-12-29T17:25:40;4.88;;;1.50;;
46723;SDS011;32463;48.298;11.620;2022-12-29T17:28:18;2.33;;;1.13;;
46723;SDS011;32463;48.298;11.620;2022-12-29T17:30:47;3.58;;;1.45;;